createdAt,value
2018-06-25T00:02:24.668Z,17.60
2018-06-25T00:04:53.063Z,18.87
2018-06-25T00:07:21.370Z,18.90
2018-06-25T00:09:50.085Z,15.37
2018-06-25T00:12:18.447Z,17.93
2018-06-25T00:14:46.787Z,15.20
2018-06-25T00:17:15.083Z,16.50
2018-06-25T00:19:43.365Z,11.73
2018-06-25T00:22:11.764Z,19.50
2018-06-25T00:24:40.052Z,15.67
2018-06-25T00:27:08.368Z,15.50
2018-06-25T00:29:36.773Z,17.43
2018-06-25T00:32:05.411Z,14.40
2018-06-25T00:34:33.955Z,13.67
2018-06-25T00:37:02.271Z,20.93
2018-06-25T00:39:30.558Z,14.00
2018-06-25T00:41:58.896Z,14.23
2018-06-25T00:44:27.399Z,15.00
2018-06-25T00:46:55.673Z,13.40
2018-06-25T00:49:24.009Z,19.97
2018-06-25T00:51:52.489Z,13.13
2018-06-25T00:54:20.813Z,14.33
2018-06-25T00:56:48.880Z,13.33
2018-06-25T00:59:28.320Z,13.97
2018-06-25T01:01:57.067Z,15.03
2018-06-25T01:04:25.970Z,13.83
2018-06-25T01:06:54.271Z,20.27
2018-06-25T01:09:22.593Z,18.13
2018-06-25T01:11:50.880Z,18.53
2018-06-25T01:14:19.170Z,14.93
2018-06-25T01:16:47.452Z,13.40
2018-06-25T01:19:15.736Z,12.10
2018-06-25T01:21:44.060Z,22.37
2018-06-25T01:24:12.316Z,19.40
2018-06-25T01:26:40.623Z,12.87
2018-06-25T01:29:08.900Z,21.90
2018-06-25T01:31:37.170Z,14.23
2018-06-25T01:34:05.626Z,17.87
2018-06-25T01:36:34.086Z,18.40
2018-06-25T01:39:02.362Z,18.17
2018-06-25T01:41:30.647Z,16.43
2018-06-25T01:43:58.963Z,16.47
2018-06-25T01:46:27.279Z,18.43
2018-06-25T01:48:55.575Z,18.97
2018-06-25T01:51:23.912Z,13.67
2018-06-25T01:53:52.584Z,16.13
2018-06-25T01:56:20.860Z,16.93
2018-06-25T01:58:49.222Z,15.97
2018-06-25T02:01:17.497Z,15.43
2018-06-25T02:03:45.799Z,16.63
2018-06-25T02:06:14.071Z,18.33
2018-06-25T02:08:42.402Z,14.03
2018-06-25T02:11:11.049Z,14.47
2018-06-25T02:13:39.388Z,17.50
2018-06-25T02:16:08.033Z,18.87
2018-06-25T02:18:36.372Z,16.43
2018-06-25T02:21:05.007Z,21.37
2018-06-25T02:23:33.376Z,19.17
2018-06-25T02:26:01.765Z,15.00
2018-06-25T02:28:30.083Z,15.80
2018-06-25T02:30:58.388Z,19.53
2018-06-25T02:33:26.698Z,17.97
2018-06-25T02:35:55.038Z,19.93
2018-06-25T02:38:23.353Z,18.30
2018-06-25T02:40:51.630Z,14.33
2018-06-25T02:43:19.719Z,14.97
2018-06-25T02:48:29.792Z,18.03
2018-06-25T02:50:58.096Z,16.10
2018-06-25T02:53:26.438Z,18.90
2018-06-25T02:57:24.241Z,17.37
2018-06-25T02:59:52.595Z,21.47
2018-06-25T03:02:20.934Z,21.63
2018-06-25T03:04:49.604Z,17.93
2018-06-25T03:07:17.926Z,17.67
2018-06-25T03:09:46.264Z,17.63
2018-06-25T03:12:14.562Z,17.70
2018-06-25T03:14:43.182Z,22.03
2018-06-25T03:17:11.541Z,13.10
2018-06-25T03:19:39.850Z,17.93
2018-06-25T03:22:08.128Z,14.47
2018-06-25T03:24:36.387Z,21.03
2018-06-25T03:27:04.716Z,18.60
2018-06-25T03:29:32.989Z,18.67
2018-06-25T03:32:01.364Z,15.43
2018-06-25T03:34:30.217Z,18.57
2018-06-25T03:36:58.852Z,21.03
2018-06-25T03:39:28.128Z,22.43
2018-06-25T03:41:56.440Z,14.90
2018-06-25T03:44:24.825Z,18.73
2018-06-25T03:46:53.121Z,16.13
2018-06-25T03:49:21.439Z,18.83
2018-06-25T03:51:50.095Z,17.20
2018-06-25T03:54:18.415Z,17.27
2018-06-25T03:56:46.758Z,20.33
2018-06-25T03:59:15.091Z,20.30
2018-06-25T04:01:43.435Z,18.00
2018-06-25T04:04:12.095Z,20.63
2018-06-25T04:06:40.404Z,17.47
2018-06-25T04:09:10.015Z,13.53
2018-06-25T04:11:38.755Z,17.97
2018-06-25T04:14:07.091Z,15.87
2018-06-25T04:16:35.409Z,18.70
2018-06-25T04:19:05.067Z,24.43
2018-06-25T04:21:35.323Z,13.73
2018-06-25T04:24:03.625Z,16.30
2018-06-25T04:26:32.678Z,18.83
2018-06-25T04:29:01.140Z,18.47
2018-06-25T04:31:30.054Z,15.87
2018-06-25T04:33:59.045Z,15.17
2018-06-25T04:36:27.327Z,15.77
2018-06-25T04:38:55.607Z,16.47
2018-06-25T04:41:24.009Z,18.43
2018-06-25T04:43:52.312Z,15.13
2018-06-25T04:46:20.634Z,13.27
2018-06-25T04:48:48.931Z,13.83
2018-06-25T04:51:17.286Z,15.03
2018-06-25T04:53:45.646Z,14.53
2018-06-25T04:56:13.968Z,12.43
2018-06-25T04:58:42.321Z,16.43
2018-06-25T05:01:10.658Z,14.47
2018-06-25T05:03:39.244Z,11.13
2018-06-25T05:06:07.558Z,11.40
2018-06-25T05:08:35.884Z,15.83
2018-06-25T05:11:04.253Z,16.67
2018-06-25T05:13:32.733Z,12.43
2018-06-25T05:16:01.016Z,14.27
2018-06-25T05:18:29.318Z,12.23
2018-06-25T05:20:58.275Z,17.10
2018-06-25T05:23:26.604Z,12.20
2018-06-25T05:25:55.052Z,11.67
2018-06-25T05:28:23.384Z,16.23
2018-06-25T05:30:51.683Z,15.23
2018-06-25T05:33:20.001Z,12.67
2018-06-25T05:35:48.307Z,12.60
2018-06-25T05:38:16.670Z,12.23
2018-06-25T05:40:45.020Z,12.20
2018-06-25T05:43:13.325Z,15.07
2018-06-25T05:45:41.620Z,15.30
2018-06-25T05:48:09.955Z,13.10
2018-06-25T05:50:38.299Z,10.67
2018-06-25T05:53:06.590Z,14.20
2018-06-25T05:55:34.846Z,10.20
2018-06-25T05:58:03.180Z,10.03
2018-06-25T06:00:31.500Z,14.97
2018-06-25T06:02:59.861Z,13.03
2018-06-25T06:05:28.175Z,13.13
2018-06-25T06:07:56.477Z,17.27
2018-06-25T06:10:24.767Z,12.13
2018-06-25T06:12:54.635Z,14.70
2018-06-25T06:15:23.032Z,13.32
2018-06-25T06:17:51.980Z,13.15
2018-06-25T06:20:20.821Z,13.77
2018-06-25T06:22:49.206Z,10.40
2018-06-25T06:25:18.432Z,12.20
2018-06-25T06:27:47.273Z,17.17
2018-06-25T06:30:16.220Z,13.48
2018-06-25T06:39:28.755Z,11.80
2018-06-25T06:41:57.990Z,12.85
2018-06-25T06:44:26.884Z,10.48
2018-06-25T06:46:55.791Z,13.15
2018-06-25T06:49:25.298Z,12.73
2018-06-25T06:51:54.675Z,11.97
2018-06-25T06:54:23.292Z,11.60
2018-06-25T06:56:52.299Z,14.03
2018-06-25T06:59:21.318Z,13.30
2018-06-25T07:01:50.266Z,15.90
2018-06-25T07:04:19.237Z,13.78
2018-06-25T07:06:48.250Z,14.00
2018-06-25T07:09:17.286Z,17.48
2018-06-25T07:11:46.438Z,18.02
2018-06-25T07:14:15.506Z,20.23
2018-06-25T07:16:44.475Z,20.35
2018-06-25T07:19:13.360Z,15.88
2018-06-25T07:21:42.328Z,14.75
2018-06-25T07:24:11.298Z,17.17
2018-06-25T07:26:40.285Z,15.10
2018-06-25T07:29:09.259Z,19.40
2018-06-25T07:31:38.547Z,17.60
2018-06-25T07:34:07.455Z,17.05
2018-06-25T07:36:36.472Z,18.82
2018-06-25T07:39:08.404Z,19.73
2018-06-25T07:41:37.503Z,20.43
2018-06-25T07:44:07.009Z,22.85
2018-06-25T07:46:35.483Z,17.03
2018-06-25T07:49:04.498Z,16.17
2018-06-25T07:54:05.341Z,14.58
2018-06-25T07:56:34.323Z,16.42
2018-06-25T07:59:03.630Z,15.38
2018-06-25T08:01:32.530Z,16.12
2018-06-25T08:04:01.561Z,15.40
2018-06-25T08:06:30.489Z,15.72
2018-06-25T08:08:59.737Z,19.32
2018-06-25T08:11:28.711Z,15.58
2018-06-25T08:13:57.631Z,18.10
2018-06-25T08:16:26.551Z,17.87
2018-06-25T08:18:56.055Z,14.85
2018-06-25T08:21:24.999Z,16.17
2018-06-25T08:23:53.967Z,17.92
2018-06-25T08:26:22.979Z,16.27
2018-06-25T08:28:52.097Z,18.57
2018-06-25T08:31:21.190Z,18.77
2018-06-25T08:33:50.139Z,16.77
2018-06-25T08:36:19.214Z,15.63
2018-06-25T08:38:48.223Z,16.77
2018-06-25T08:41:17.220Z,16.65
2018-06-25T08:43:46.206Z,19.82
2018-06-25T08:46:15.142Z,14.15
2018-06-25T08:48:44.616Z,16.50
2018-06-25T08:51:17.109Z,16.57
2018-06-25T08:53:45.989Z,15.18
2018-06-25T08:56:14.916Z,17.12
2018-06-25T08:58:43.892Z,17.12
2018-06-25T09:01:12.848Z,13.10
2018-06-25T09:03:41.410Z,15.70
2018-06-25T09:06:10.373Z,14.03
2018-06-25T09:08:39.412Z,11.65
2018-06-25T09:11:09.090Z,12.18
2018-06-25T09:13:37.968Z,15.48
2018-06-25T09:16:07.452Z,17.10
2018-06-25T09:18:36.460Z,14.68
2018-06-25T09:21:05.411Z,18.98
2018-06-25T09:23:34.251Z,12.70
2018-06-25T09:26:03.153Z,9.78
2018-06-25T09:28:32.176Z,10.30
2018-06-25T09:31:01.057Z,16.10
2018-06-25T09:33:29.919Z,13.65
2018-06-25T09:35:59.454Z,10.30
2018-06-25T09:38:28.368Z,13.28
2018-06-25T09:40:57.308Z,9.88
2018-06-25T09:43:26.354Z,8.83
2018-06-25T09:45:55.237Z,10.85
2018-06-25T09:48:24.312Z,7.08
2018-06-25T09:50:53.221Z,5.67
2018-06-25T09:53:22.131Z,5.37
2018-06-25T09:55:51.031Z,4.58
2018-06-25T09:58:20.159Z,5.47
2018-06-25T10:00:54.303Z,6.25
2018-06-25T10:03:23.230Z,6.65
2018-06-25T10:05:51.864Z,5.50
2018-06-25T10:08:20.711Z,5.80
2018-06-25T10:10:49.969Z,6.28
2018-06-25T10:13:18.926Z,3.92
2018-06-25T10:15:47.786Z,6.42
2018-06-25T10:18:16.719Z,3.45
2018-06-25T10:20:45.678Z,3.58
2018-06-25T10:23:14.603Z,4.25
2018-06-25T10:25:43.451Z,3.52
2018-06-25T10:28:12.025Z,4.55
2018-06-25T10:30:40.881Z,4.83
2018-06-25T10:33:09.731Z,5.62
2018-06-25T10:35:38.943Z,4.55
2018-06-25T10:38:08.111Z,3.37
2018-06-25T10:40:37.007Z,2.50
2018-06-25T10:43:06.286Z,3.50
2018-06-25T10:45:35.162Z,3.02
2018-06-25T10:48:04.177Z,3.55
2018-06-25T10:50:33.084Z,1.62
2018-06-25T10:53:01.954Z,2.33
2018-06-25T10:55:31.047Z,2.30
2018-06-25T10:58:00.131Z,2.45
2018-06-25T11:00:29.074Z,2.10
2018-06-25T11:02:57.457Z,1.33
2018-06-25T11:05:26.419Z,1.45
2018-06-25T11:07:55.266Z,1.60
2018-06-25T11:10:24.128Z,2.15
2018-06-25T11:12:52.983Z,1.77
2018-06-25T11:15:21.901Z,1.75
2018-06-25T11:17:50.848Z,2.45
2018-06-25T11:20:19.765Z,3.52
2018-06-25T11:22:48.606Z,2.05
2018-06-25T11:25:17.477Z,2.60
2018-06-25T11:27:46.329Z,3.08
2018-06-25T11:30:15.327Z,2.30
2018-06-25T11:32:44.263Z,1.82
2018-06-25T11:35:13.172Z,2.47
2018-06-25T11:37:42.028Z,2.22
2018-06-25T11:40:10.861Z,4.25
2018-06-25T11:42:39.705Z,2.95
2018-06-25T11:45:08.556Z,3.42
2018-06-25T11:47:37.371Z,3.77
2018-06-25T11:50:06.547Z,5.62
2018-06-25T11:52:35.394Z,5.00
2018-06-25T11:55:04.271Z,2.85
2018-06-25T11:57:33.124Z,6.12
2018-06-25T12:00:01.985Z,4.42
2018-06-25T12:02:31.077Z,5.25
2018-06-25T12:05:00.082Z,8.23
2018-06-25T12:07:29.278Z,6.15
2018-06-25T12:09:58.135Z,4.12
2018-06-25T12:12:27.409Z,4.85
2018-06-25T12:14:56.484Z,5.28
2018-06-25T12:17:25.592Z,6.10
2018-06-25T12:19:54.688Z,8.63
2018-06-25T12:22:23.675Z,7.97
2018-06-25T12:24:52.338Z,9.18
2018-06-25T12:27:21.578Z,10.45
2018-06-25T12:29:50.408Z,8.08
2018-06-25T12:32:19.244Z,10.18
2018-06-25T12:34:48.123Z,6.28
2018-06-25T12:37:17.103Z,8.20
2018-06-25T12:39:45.949Z,6.37
2018-06-25T12:42:15.109Z,6.83
2018-06-25T12:44:43.965Z,6.78
2018-06-25T12:47:13.251Z,7.17
2018-06-25T12:49:42.080Z,7.45
2018-06-25T12:52:10.926Z,6.85
2018-06-25T12:54:39.805Z,6.78
2018-06-25T12:57:08.749Z,8.43
2018-06-25T12:59:37.725Z,6.97
2018-06-25T13:02:06.568Z,5.80
2018-06-25T13:04:35.107Z,6.33
2018-06-25T13:07:03.985Z,7.78
2018-06-25T13:09:32.943Z,4.67
2018-06-25T13:12:01.793Z,5.40
2018-06-25T13:14:30.628Z,5.25
2018-06-25T13:16:59.532Z,5.42
2018-06-25T13:19:28.796Z,4.00
2018-06-25T13:21:57.627Z,6.35
2018-06-25T13:24:26.488Z,4.67
2018-06-25T13:26:55.333Z,4.08
2018-06-25T13:29:24.147Z,4.00
2018-06-25T13:31:53.330Z,5.05
2018-06-25T13:34:22.230Z,6.03
2018-06-25T13:36:51.121Z,3.55
2018-06-25T13:39:19.978Z,4.05
2018-06-25T13:41:48.800Z,5.97
2018-06-25T13:44:17.999Z,4.40
2018-06-25T13:46:47.064Z,3.95
2018-06-25T13:49:15.903Z,4.03
2018-06-25T13:51:44.768Z,5.03
2018-06-25T13:54:13.829Z,2.52
2018-06-25T13:56:43.559Z,2.90
2018-06-25T13:59:12.759Z,3.02
2018-06-25T14:01:41.656Z,2.70
2018-06-25T14:04:10.553Z,4.53
2018-06-25T14:06:39.574Z,2.95
2018-06-25T14:09:09.602Z,4.00
2018-06-25T14:11:38.695Z,3.27
2018-06-25T14:14:08.077Z,4.25
2018-06-25T14:16:37.777Z,4.65
2018-06-25T14:19:06.817Z,4.72
2018-06-25T14:21:36.044Z,3.27
2018-06-25T14:24:10.447Z,4.05
2018-06-25T14:26:42.192Z,4.08
2018-06-25T14:29:16.295Z,3.15
2018-06-25T14:31:45.129Z,2.65
2018-06-25T14:34:22.095Z,3.20
2018-06-25T14:36:51.091Z,3.08
2018-06-25T14:39:20.362Z,2.98
2018-06-25T14:41:49.224Z,3.00
2018-06-25T14:44:18.153Z,3.40
2018-06-25T14:46:47.071Z,3.92
2018-06-25T14:49:15.681Z,3.15
2018-06-25T14:51:44.340Z,1.97
2018-06-25T14:54:12.960Z,4.90
2018-06-25T14:56:41.537Z,2.80
2018-06-25T14:59:10.203Z,2.27
2018-06-25T15:01:39.126Z,3.10
2018-06-25T15:04:08.611Z,2.17
2018-06-25T15:06:37.233Z,3.80
2018-06-25T15:09:08.939Z,4.53
2018-06-25T15:11:37.522Z,2.57
2018-06-25T15:14:06.544Z,3.87
2018-06-25T15:16:35.470Z,3.43
2018-06-25T15:19:04.192Z,3.43
2018-06-25T15:21:32.713Z,3.30
2018-06-25T15:24:01.255Z,5.57
2018-06-25T15:26:29.851Z,5.30
2018-06-25T15:28:58.740Z,3.10
2018-06-25T15:31:27.383Z,3.13
2018-06-25T15:33:56.008Z,3.13
2018-06-25T15:36:24.698Z,2.87
2018-06-25T15:38:53.405Z,3.43
2018-06-25T15:41:22.344Z,3.67
2018-06-25T15:43:50.928Z,2.27
2018-06-25T15:46:19.597Z,2.47
2018-06-25T15:48:48.214Z,1.60
2018-06-25T15:51:17.204Z,2.97
2018-06-25T15:53:46.324Z,2.43
2018-06-25T15:56:15.183Z,2.80
2018-06-25T15:58:44.570Z,2.43
2018-06-25T16:01:13.702Z,2.80
2018-06-25T16:03:42.353Z,2.83
2018-06-25T16:06:11.022Z,2.60
2018-06-25T16:08:39.622Z,5.63
2018-06-25T16:11:08.286Z,3.87
2018-06-25T16:13:36.916Z,4.23
2018-06-25T16:16:05.831Z,3.40
2018-06-25T16:18:34.812Z,4.30
2018-06-25T16:21:03.499Z,4.33
2018-06-25T16:23:32.160Z,4.67
2018-06-25T16:26:01.259Z,3.37
2018-06-25T16:28:29.953Z,5.30
2018-06-25T16:30:58.544Z,3.73
2018-06-25T16:33:27.181Z,3.07
2018-06-25T16:35:55.827Z,4.73
2018-06-25T16:38:24.781Z,3.57
2018-06-25T16:40:53.514Z,4.37
2018-06-25T16:43:22.298Z,4.07
2018-06-25T16:45:50.890Z,2.67
2018-06-25T16:48:19.487Z,4.13
2018-06-25T16:50:48.147Z,3.33
2018-06-25T16:53:16.909Z,2.97
2018-06-25T16:55:45.634Z,3.17
2018-06-25T16:58:14.368Z,3.00
2018-06-25T17:00:43.121Z,3.47
2018-06-25T17:03:11.469Z,2.93
2018-06-25T17:05:40.558Z,3.47
2018-06-25T17:08:09.271Z,3.73
2018-06-25T17:10:37.967Z,2.87
2018-06-25T17:13:08.282Z,3.00
2018-06-25T17:15:36.931Z,3.77
2018-06-25T17:18:05.709Z,3.17
2018-06-25T17:20:34.351Z,4.50
2018-06-25T17:23:03.094Z,3.43
2018-06-25T17:25:32.106Z,2.87
2018-06-25T17:28:01.749Z,2.70
2018-06-25T17:30:30.681Z,4.22
2018-06-25T17:32:59.641Z,5.67
2018-06-25T17:35:28.903Z,5.70
2018-06-25T17:37:58.178Z,3.55
2018-06-25T17:40:27.461Z,5.55
2018-06-25T17:42:56.425Z,3.55
2018-06-25T17:45:25.852Z,3.02
2018-06-25T17:47:54.814Z,3.12
2018-06-25T17:50:23.867Z,2.98
2018-06-25T17:52:53.559Z,4.12
2018-06-25T17:55:22.475Z,3.20
2018-06-25T17:57:51.677Z,2.87
2018-06-25T18:00:20.643Z,3.58
2018-06-25T18:02:49.630Z,2.90
2018-06-25T18:05:19.912Z,3.22
2018-06-25T18:07:48.897Z,4.53
2018-06-25T18:10:17.867Z,4.30
2018-06-25T18:12:47.108Z,7.08
2018-06-25T18:15:16.056Z,3.60
2018-06-25T18:17:45.278Z,5.00
2018-06-25T18:20:15.251Z,5.03
2018-06-25T18:22:44.149Z,4.87
2018-06-25T18:25:13.412Z,4.65
2018-06-25T18:27:42.337Z,4.40
2018-06-25T18:30:11.071Z,4.10
2018-06-25T18:52:39.077Z,6.08
2018-06-25T18:55:07.996Z,5.33
2018-06-25T18:57:36.922Z,4.08
2018-06-25T19:00:07.178Z,3.67
2018-06-25T19:02:36.437Z,5.05
2018-06-25T19:05:05.623Z,3.83
2018-06-25T19:07:34.706Z,4.45
2018-06-25T19:10:03.724Z,5.22
2018-06-25T19:12:32.683Z,5.37
2018-06-25T19:17:55.969Z,5.37
2018-06-25T19:20:25.047Z,5.83
2018-06-25T19:22:54.152Z,6.75
2018-06-25T19:25:23.114Z,5.67
2018-06-25T19:27:52.111Z,6.55
2018-06-25T19:30:21.766Z,7.10
2018-06-25T19:32:49.826Z,4.87
2018-06-25T19:35:18.774Z,4.75
2018-06-25T19:37:47.131Z,7.53
2018-06-25T19:40:15.628Z,5.57
2018-06-25T19:42:44.124Z,6.60
2018-06-25T19:45:12.736Z,5.20
2018-06-25T19:47:41.254Z,5.73
2018-06-25T19:50:09.788Z,5.50
2018-06-25T19:52:39.017Z,5.57
2018-06-25T19:55:08.130Z,5.60
2018-06-25T19:57:36.925Z,5.10
2018-06-25T20:00:09.622Z,6.47
2018-06-25T20:02:38.045Z,6.60
2018-06-25T20:05:06.829Z,6.63
2018-06-25T20:07:35.176Z,6.17
2018-06-25T20:10:03.566Z,4.57
2018-06-25T20:12:32.742Z,6.20
2018-06-25T20:15:01.811Z,5.43
2018-06-25T20:17:30.183Z,5.47
2018-06-25T20:19:58.618Z,6.50
2018-06-25T20:22:27.470Z,6.47
2018-06-25T20:24:55.971Z,4.57
2018-06-25T20:27:24.426Z,6.37
2018-06-25T20:29:52.897Z,7.20
2018-06-25T20:32:21.417Z,4.80
2018-06-25T20:34:50.123Z,5.37
2018-06-25T20:37:19.216Z,5.73
2018-06-25T20:39:47.595Z,6.17
2018-06-25T20:42:16.112Z,7.30
2018-06-25T20:44:44.535Z,6.40
2018-06-25T20:47:12.970Z,6.13
2018-06-25T20:49:42.417Z,8.97
2018-06-25T20:52:10.843Z,8.00
2018-06-25T20:54:39.204Z,8.40
2018-06-25T20:57:07.620Z,8.63
2018-06-25T20:59:36.269Z,10.50
2018-06-25T21:02:04.936Z,8.60
2018-06-25T21:04:39.434Z,10.07
2018-06-25T21:07:08.026Z,7.23
2018-06-25T21:09:36.622Z,8.57
2018-06-25T21:12:05.247Z,7.93
2018-06-25T21:14:33.676Z,7.90
2018-06-25T21:17:02.088Z,9.13
2018-06-25T21:19:34.630Z,6.93
2018-06-25T21:22:04.173Z,5.40
2018-06-25T21:24:32.648Z,7.77
2018-06-25T21:27:01.418Z,9.73
2018-06-25T21:29:29.804Z,8.00
2018-06-25T21:31:58.505Z,7.47
2018-06-25T21:34:27.218Z,9.60
2018-06-25T21:36:55.741Z,8.53
2018-06-25T21:39:24.161Z,9.00
2018-06-25T21:41:53.222Z,9.27
2018-06-25T21:44:21.602Z,6.60
2018-06-25T21:46:49.997Z,8.43
2018-06-25T21:49:18.955Z,12.03
2018-06-25T21:51:47.356Z,6.43
2018-06-25T21:54:16.114Z,7.10
2018-06-25T21:56:45.201Z,8.03
2018-06-25T21:59:13.602Z,10.63
2018-06-25T22:01:42.148Z,7.60
2018-06-25T22:04:10.745Z,8.73
2018-06-25T22:06:40.132Z,8.03
2018-06-25T22:09:09.231Z,8.77
2018-06-25T22:11:37.586Z,11.67
2018-06-25T22:14:06.099Z,10.87
2018-06-25T22:16:34.383Z,9.43
2018-06-25T22:19:02.673Z,8.57
2018-06-25T22:21:31.013Z,11.33
2018-06-25T22:23:59.361Z,12.80
2018-06-25T22:26:27.719Z,10.53
2018-06-25T22:28:55.899Z,10.70
2018-06-25T22:31:24.228Z,10.30
2018-06-25T22:33:52.547Z,9.07
2018-06-25T22:36:21.229Z,10.00
2018-06-25T22:38:49.531Z,12.33
2018-06-25T22:41:18.211Z,13.23
2018-06-25T22:43:47.004Z,11.13
2018-06-25T22:46:15.812Z,12.23
2018-06-25T22:48:44.452Z,15.00
2018-06-25T22:51:13.097Z,14.73
2018-06-25T22:53:41.487Z,16.10
2018-06-25T22:56:10.109Z,11.43
2018-06-25T22:58:38.458Z,13.10
2018-06-25T23:01:06.862Z,12.20
2018-06-25T23:03:35.216Z,9.70
2018-06-25T23:06:04.447Z,12.23
2018-06-25T23:08:32.791Z,11.50
2018-06-25T23:11:01.316Z,10.10
2018-06-25T23:13:29.719Z,11.30
2018-06-25T23:15:58.154Z,10.37
2018-06-25T23:19:55.963Z,13.17
2018-06-25T23:22:24.281Z,13.73
2018-06-25T23:24:52.860Z,13.07
2018-06-25T23:27:21.204Z,11.23
2018-06-25T23:29:49.543Z,13.53
2018-06-25T23:32:17.829Z,14.80
2018-06-25T23:34:46.398Z,9.57
2018-06-25T23:37:14.732Z,11.97
2018-06-25T23:39:43.067Z,14.53
2018-06-25T23:42:11.525Z,11.90
2018-06-25T23:44:39.860Z,12.33
2018-06-25T23:47:08.254Z,10.60
2018-06-25T23:49:36.868Z,9.80
2018-06-25T23:52:05.264Z,10.33
2018-06-25T23:54:33.787Z,11.00
2018-06-25T23:57:02.327Z,10.87
2018-06-25T23:59:30.658Z,11.87
